createdAt,value
2022-10-05T00:01:27.319Z,8.23
2022-10-05T00:04:00.345Z,8.13
2022-10-05T00:06:30.117Z,8.15
2022-10-05T00:08:56.931Z,8.14
2022-10-05T00:11:23.636Z,8.07
2022-10-05T00:13:50.480Z,7.98
2022-10-05T00:16:21.103Z,7.87
2022-10-05T00:18:50.614Z,7.92
2022-10-05T00:21:23.288Z,7.86
2022-10-05T00:23:50.881Z,7.91
2022-10-05T00:26:26.503Z,7.85
2022-10-05T00:28:54.572Z,7.73
2022-10-05T00:31:24.376Z,7.78
2022-10-05T00:33:51.453Z,7.76
2022-10-05T00:36:18.724Z,7.73
2022-10-05T00:38:45.610Z,7.64
2022-10-05T00:41:37.492Z,7.69
2022-10-05T00:44:33.128Z,7.64
2022-10-05T00:47:18.401Z,7.58
2022-10-05T00:50:08.550Z,7.59
2022-10-05T00:53:05.940Z,7.51
2022-10-05T00:55:58.072Z,7.48
2022-10-05T00:58:24.796Z,7.44
2022-10-05T01:01:25.672Z,7.32
2022-10-05T01:04:27.775Z,7.14
2022-10-05T01:07:25.558Z,7.21
2022-10-05T01:10:09.832Z,7.13
2022-10-05T01:13:03.067Z,7.15
2022-10-05T01:15:42.882Z,7.22
2022-10-05T01:18:25.657Z,7.24
2022-10-05T01:21:17.742Z,7.26
2022-10-05T01:24:14.054Z,7.17
2022-10-05T01:26:53.466Z,7.08
2022-10-05T01:29:45.180Z,7.04
2022-10-05T01:32:51.922Z,6.90
2022-10-05T01:35:37.674Z,6.92
2022-10-05T01:38:21.616Z,6.90
2022-10-05T01:41:22.673Z,6.88
2022-10-05T01:44:28.490Z,6.80
2022-10-05T01:47:29.057Z,6.97
2022-10-05T01:50:16.922Z,7.01
2022-10-05T01:53:00.840Z,7.00
2022-10-05T01:55:41.633Z,6.93
2022-10-05T01:58:36.954Z,6.84
2022-10-05T02:01:31.409Z,6.80
2022-10-05T02:04:42.675Z,6.88
2022-10-05T02:07:23.042Z,6.83
2022-10-05T02:10:06.022Z,6.82
2022-10-05T02:12:42.480Z,6.73
2022-10-05T02:15:15.083Z,6.65
2022-10-05T02:17:54.982Z,6.70
2022-10-05T02:20:35.422Z,6.62
2022-10-05T02:23:19.467Z,6.82
2022-10-05T02:25:56.924Z,6.83
2022-10-05T02:28:40.687Z,6.74
2022-10-05T02:31:36.324Z,6.81
2022-10-05T02:34:23.092Z,6.74
2022-10-05T02:37:14.543Z,6.64
2022-10-05T02:40:00.143Z,6.63
2022-10-05T02:43:28.791Z,6.66
2022-10-05T02:46:13.978Z,6.64
2022-10-05T02:49:05.587Z,6.60
2022-10-05T02:51:35.398Z,6.64
2022-10-05T02:54:14.312Z,6.75
2022-10-05T02:57:03.273Z,6.85
2022-10-05T02:59:43.653Z,6.80
2022-10-05T03:02:58.724Z,6.61
2022-10-05T03:05:35.458Z,6.56
2022-10-05T03:08:09.615Z,6.52
2022-10-05T03:11:05.579Z,6.52
2022-10-05T03:14:00.278Z,6.53
2022-10-05T03:16:36.584Z,6.50
2022-10-05T03:19:47.507Z,6.49
2022-10-05T03:22:45.354Z,6.52
2022-10-05T03:25:57.449Z,6.59
2022-10-05T03:28:39.875Z,6.59
2022-10-05T03:31:19.583Z,6.58
2022-10-05T03:34:09.424Z,6.59
2022-10-05T03:37:03.885Z,6.50
2022-10-05T03:39:53.918Z,6.53
2022-10-05T03:42:33.392Z,6.52
2022-10-05T03:45:18.506Z,6.53
2022-10-05T03:47:51.176Z,6.59
2022-10-05T03:50:48.432Z,6.65
2022-10-05T03:53:20.427Z,6.67
2022-10-05T03:56:05.108Z,6.64
2022-10-05T03:58:57.547Z,6.64
2022-10-05T04:01:33.543Z,6.60
2022-10-05T04:04:05.017Z,6.64
2022-10-05T04:06:41.124Z,6.57
2022-10-05T04:09:25.052Z,6.56
2022-10-05T04:12:04.683Z,6.51
2022-10-05T04:14:41.597Z,6.50
2022-10-05T04:17:37.671Z,6.50
2022-10-05T04:20:27.556Z,6.50
2022-10-05T04:23:04.536Z,6.47
2022-10-05T04:25:43.646Z,6.39
2022-10-05T04:28:33.720Z,6.33
2022-10-05T04:31:04.355Z,6.37
2022-10-05T04:33:33.394Z,6.35
2022-10-05T04:36:22.520Z,6.31
2022-10-05T04:38:55.547Z,6.41
2022-10-05T04:41:56.850Z,6.50
2022-10-05T04:44:44.887Z,6.48
2022-10-05T04:47:36.797Z,6.43
2022-10-05T04:50:26.836Z,6.38
2022-10-05T04:53:08.129Z,6.21
2022-10-05T04:55:46.398Z,6.16
2022-10-05T04:58:32.569Z,6.21
2022-10-05T05:01:22.366Z,6.12
2022-10-05T05:04:12.289Z,6.10
2022-10-05T05:07:12.805Z,6.16
2022-10-05T05:09:39.770Z,6.22
2022-10-05T05:12:33.981Z,6.21
2022-10-05T05:15:34.626Z,6.31
2022-10-05T05:18:21.335Z,6.41
2022-10-05T05:21:21.624Z,6.54
2022-10-05T05:23:48.410Z,6.71
2022-10-05T05:26:27.268Z,6.80
2022-10-05T05:29:42.567Z,6.85
2022-10-05T05:32:46.763Z,6.98
2022-10-05T05:35:29.071Z,7.07
2022-10-05T05:38:14.141Z,7.16
2022-10-05T05:40:59.267Z,7.26
2022-10-05T05:43:56.097Z,7.35
2022-10-05T05:46:51.135Z,7.49
2022-10-05T05:49:22.368Z,7.56
2022-10-05T05:52:09.829Z,7.61
2022-10-05T05:54:44.628Z,7.76
2022-10-05T05:57:30.673Z,7.89
2022-10-05T06:00:03.775Z,8.02
2022-10-05T06:02:58.741Z,8.14
2022-10-05T06:05:40.712Z,8.34
2022-10-05T06:08:33.476Z,8.48
2022-10-05T06:11:16.801Z,8.65
2022-10-05T06:13:44.269Z,8.77
2022-10-05T06:16:19.423Z,8.92
2022-10-05T06:18:55.488Z,9.01
2022-10-05T06:21:30.378Z,9.11
2022-10-05T06:24:14.026Z,9.26
2022-10-05T06:27:18.554Z,9.39
2022-10-05T06:29:57.377Z,9.52
2022-10-05T06:32:33.527Z,9.57
2022-10-05T06:35:15.328Z,9.70
2022-10-05T06:38:00.618Z,9.82
2022-10-05T06:40:30.763Z,9.89
2022-10-05T06:43:05.765Z,9.98
2022-10-05T06:45:53.211Z,10.17
2022-10-05T06:48:40.787Z,10.37
2022-10-05T06:51:55.110Z,10.45
2022-10-05T06:54:53.855Z,10.53
2022-10-05T06:57:27.203Z,10.60
2022-10-05T07:00:04.887Z,10.67
2022-10-05T07:02:40.751Z,10.72
2022-10-05T07:05:33.437Z,10.85
2022-10-05T07:08:09.910Z,10.97
2022-10-05T07:10:57.916Z,11.12
2022-10-05T07:13:40.270Z,11.24
2022-10-05T07:16:22.938Z,11.26
2022-10-05T07:19:05.212Z,11.37
2022-10-05T07:21:39.611Z,11.43
2022-10-05T07:24:29.183Z,11.45
2022-10-05T07:27:02.311Z,11.52
2022-10-05T07:30:05.915Z,11.57
2022-10-05T07:32:55.620Z,11.62
2022-10-05T07:36:01.254Z,11.65
2022-10-05T07:38:52.966Z,11.69
2022-10-05T07:41:31.230Z,11.69
2022-10-05T07:44:19.086Z,11.80
2022-10-05T07:47:00.815Z,11.83
2022-10-05T07:49:47.928Z,11.87
2022-10-05T07:52:22.027Z,11.91
2022-10-05T07:55:26.088Z,11.99
2022-10-05T07:58:06.168Z,11.93
2022-10-05T08:00:55.748Z,12.03
2022-10-05T08:03:38.323Z,12.05
2022-10-05T08:06:10.199Z,12.12
2022-10-05T08:08:48.095Z,12.20
2022-10-05T08:11:19.195Z,12.24
2022-10-05T08:14:03.827Z,12.27
2022-10-05T08:16:36.385Z,12.26
2022-10-05T08:19:15.282Z,12.28
2022-10-05T08:21:49.262Z,12.31
2022-10-05T08:24:44.323Z,12.40
2022-10-05T08:27:50.128Z,12.43
2022-10-05T08:30:17.327Z,12.50
2022-10-05T08:32:43.869Z,12.56
2022-10-05T08:35:22.648Z,12.61
2022-10-05T08:37:51.014Z,12.65
2022-10-05T08:40:58.511Z,12.70
2022-10-05T08:43:49.484Z,12.76
2022-10-05T08:46:54.062Z,12.83
2022-10-05T08:49:57.893Z,12.92
2022-10-05T08:52:46.998Z,12.99
2022-10-05T08:55:34.083Z,13.18
2022-10-05T08:58:30.481Z,13.27
2022-10-05T09:01:18.458Z,13.42
2022-10-05T09:04:01.392Z,13.49
2022-10-05T09:06:53.797Z,13.55
2022-10-05T09:09:26.490Z,13.66
2022-10-05T09:12:11.171Z,13.74
2022-10-05T09:15:31.815Z,13.82
2022-10-05T09:18:07.783Z,13.90
2022-10-05T09:20:54.181Z,13.96
2022-10-05T09:23:49.084Z,14.07
2022-10-05T09:26:40.931Z,14.18
2022-10-05T09:29:49.487Z,14.18
2022-10-05T09:32:54.019Z,14.46
2022-10-05T09:35:45.369Z,15.13
2022-10-05T09:38:53.597Z,15.50
2022-10-05T09:41:23.297Z,15.78
2022-10-05T09:44:01.887Z,16.05
2022-10-05T09:46:41.164Z,16.19
2022-10-05T09:49:35.323Z,16.30
2022-10-05T09:52:35.166Z,16.46
2022-10-05T09:55:06.641Z,16.55
2022-10-05T09:57:50.850Z,16.67
2022-10-05T10:00:28.355Z,16.77
2022-10-05T10:03:10.026Z,16.94
2022-10-05T10:05:57.931Z,17.06
2022-10-05T10:09:02.107Z,17.25
2022-10-05T10:11:50.489Z,17.31
2022-10-05T10:15:11.360Z,17.29
2022-10-05T10:17:59.603Z,17.12
2022-10-05T10:20:56.959Z,17.08
2022-10-05T10:24:00.407Z,16.98
2022-10-05T10:26:51.675Z,16.96
2022-10-05T10:29:53.554Z,16.90
2022-10-05T10:32:33.875Z,16.91
2022-10-05T10:35:21.862Z,17.10
2022-10-05T10:38:23.715Z,17.28
2022-10-05T10:41:27.722Z,17.63
2022-10-05T10:44:12.941Z,17.97
2022-10-05T10:47:41.560Z,18.19
2022-10-05T10:50:36.061Z,18.41
2022-10-05T10:53:36.173Z,18.67
2022-10-05T10:56:21.296Z,18.89
2022-10-05T10:59:17.401Z,18.97
2022-10-05T11:01:53.412Z,19.00
2022-10-05T11:04:57.267Z,19.16
2022-10-05T11:07:58.291Z,19.03
2022-10-05T11:10:27.935Z,19.12
2022-10-05T11:13:00.833Z,19.16
2022-10-05T11:15:42.804Z,19.25
2022-10-05T11:18:24.268Z,18.97
2022-10-05T11:21:41.460Z,18.88
2022-10-05T11:24:38.787Z,18.78
2022-10-05T11:27:37.758Z,18.90
2022-10-05T11:30:25.882Z,18.93
2022-10-05T11:33:25.110Z,19.03
2022-10-05T11:36:38.187Z,19.02
2022-10-05T11:39:20.723Z,19.07
2022-10-05T11:42:19.163Z,19.11
2022-10-05T11:45:36.319Z,19.18
2022-10-05T11:48:33.761Z,19.23
2022-10-05T11:51:37.317Z,19.22
2022-10-05T11:54:18.399Z,19.14
2022-10-05T11:56:54.682Z,19.06
2022-10-05T11:59:30.475Z,19.07
2022-10-05T12:02:19.079Z,19.19
2022-10-05T12:05:10.815Z,19.16
2022-10-05T12:07:37.569Z,19.27
2022-10-05T12:10:23.414Z,19.27
2022-10-05T12:13:02.718Z,19.17
2022-10-05T12:15:56.921Z,19.10
2022-10-05T12:18:34.030Z,19.03
2022-10-05T12:21:09.373Z,18.99
2022-10-05T12:23:50.948Z,18.97
2022-10-05T12:26:29.755Z,18.85
2022-10-05T12:29:13.924Z,18.76
2022-10-05T12:32:03.029Z,18.68
2022-10-05T12:34:41.897Z,18.57
2022-10-05T12:37:47.801Z,18.44
2022-10-05T12:40:22.733Z,18.44
2022-10-05T12:43:01.345Z,18.43
2022-10-05T12:45:43.531Z,18.47
2022-10-05T12:48:44.013Z,18.46
2022-10-05T12:51:41.953Z,18.58
2022-10-05T12:54:29.924Z,18.66
2022-10-05T12:57:05.959Z,18.71
2022-10-05T12:59:41.704Z,18.70
2022-10-05T13:02:33.313Z,18.78
2022-10-05T13:05:11.729Z,18.81
2022-10-05T13:07:47.387Z,19.03
2022-10-05T13:10:28.012Z,18.99
2022-10-05T13:13:16.435Z,18.91
2022-10-05T13:16:01.721Z,18.78
2022-10-05T13:18:51.050Z,18.70
2022-10-05T13:21:33.053Z,18.66
2022-10-05T13:24:18.501Z,18.64
2022-10-05T13:26:52.009Z,18.62
2022-10-05T13:29:31.086Z,18.52
2022-10-05T13:32:03.785Z,18.51
2022-10-05T13:34:33.300Z,18.53
2022-10-05T13:37:09.063Z,18.50
2022-10-05T13:39:49.704Z,18.51
2022-10-05T13:42:49.174Z,18.49
2022-10-05T13:45:24.668Z,18.48
2022-10-05T13:48:03.673Z,18.50
2022-10-05T13:50:34.610Z,18.52
2022-10-05T13:53:31.190Z,18.59
2022-10-05T13:56:14.862Z,18.53
2022-10-05T13:58:48.141Z,18.49
2022-10-05T14:01:22.715Z,18.49
2022-10-05T14:04:16.951Z,18.55
2022-10-05T14:06:45.086Z,18.50
2022-10-05T14:09:22.065Z,18.50
2022-10-05T14:11:51.176Z,18.47
2022-10-05T14:14:28.269Z,18.47
2022-10-05T14:17:00.770Z,18.47
2022-10-05T14:19:32.409Z,18.48
2022-10-05T14:22:02.157Z,18.60
2022-10-05T14:24:46.139Z,18.64
2022-10-05T14:27:21.467Z,18.56
2022-10-05T14:30:00.502Z,18.55
2022-10-05T14:32:31.982Z,18.53
2022-10-05T14:35:28.151Z,18.51
2022-10-05T14:38:01.250Z,18.41
2022-10-05T14:40:35.013Z,18.33
2022-10-05T14:43:31.071Z,18.35
2022-10-05T14:46:00.896Z,18.24
2022-10-05T14:48:37.526Z,18.13
2022-10-05T14:51:10.791Z,18.16
2022-10-05T14:53:41.519Z,18.04
2022-10-05T14:56:11.255Z,17.98
2022-10-05T14:58:45.664Z,17.98
2022-10-05T15:01:24.092Z,17.85
2022-10-05T15:04:16.784Z,17.81
2022-10-05T15:06:57.612Z,17.65
2022-10-05T15:09:34.962Z,17.58
2022-10-05T15:12:03.090Z,17.55
2022-10-05T15:14:32.482Z,17.48
2022-10-05T15:17:17.033Z,17.38
2022-10-05T15:20:16.203Z,17.33
2022-10-05T15:22:54.248Z,17.25
2022-10-05T15:25:37.853Z,17.19
2022-10-05T15:28:19.547Z,17.08
2022-10-05T15:31:17.592Z,17.02
2022-10-05T15:34:24.802Z,17.01
2022-10-05T15:37:12.047Z,16.94
2022-10-05T15:40:02.319Z,16.82
2022-10-05T15:42:38.283Z,16.82
2022-10-05T15:45:06.555Z,16.72
2022-10-05T15:47:56.236Z,16.63
2022-10-05T15:50:27.950Z,16.47
2022-10-05T15:53:45.773Z,16.36
2022-10-05T15:56:21.488Z,16.34
2022-10-05T15:58:55.746Z,16.22
2022-10-05T16:01:44.402Z,16.14
2022-10-05T16:04:17.027Z,16.10
2022-10-05T16:07:20.120Z,16.04
2022-10-05T16:10:16.956Z,15.97
2022-10-05T16:13:05.369Z,15.91
2022-10-05T16:16:02.479Z,15.81
2022-10-05T16:18:47.322Z,15.75
2022-10-05T16:21:29.323Z,15.71
2022-10-05T16:24:10.633Z,15.67
2022-10-05T16:26:43.109Z,15.63
2022-10-05T16:29:28.562Z,15.58
2022-10-05T16:32:04.698Z,15.53
2022-10-05T16:34:40.349Z,15.48
2022-10-05T16:37:26.104Z,15.46
2022-10-05T16:40:00.122Z,15.42
2022-10-05T16:43:19.978Z,15.44
2022-10-05T16:46:09.824Z,15.46
2022-10-05T16:48:52.005Z,15.50
2022-10-05T16:51:31.113Z,15.44
2022-10-05T16:54:18.077Z,15.48
2022-10-05T16:56:54.161Z,15.49
2022-10-05T16:59:48.153Z,15.44
2022-10-05T17:02:31.599Z,15.38
2022-10-05T17:05:14.363Z,15.40
2022-10-05T17:08:11.977Z,15.32
2022-10-05T17:10:50.721Z,15.26
2022-10-05T17:13:40.925Z,15.20
2022-10-05T17:16:13.790Z,15.22
2022-10-05T17:19:10.782Z,15.25
2022-10-05T17:22:03.141Z,15.27
2022-10-05T17:24:46.531Z,15.26
2022-10-05T17:27:21.716Z,15.15
2022-10-05T17:30:12.655Z,15.25
2022-10-05T17:32:56.274Z,15.14
2022-10-05T17:35:49.259Z,15.14
2022-10-05T17:38:22.434Z,15.20
2022-10-05T17:41:24.408Z,15.16
2022-10-05T17:44:09.895Z,15.20
2022-10-05T17:46:39.699Z,15.17
2022-10-05T17:49:26.898Z,15.14
2022-10-05T17:52:12.429Z,15.06
2022-10-05T17:55:03.646Z,15.07
2022-10-05T17:57:31.322Z,15.04
2022-10-05T18:00:04.918Z,15.03
2022-10-05T18:02:41.041Z,15.12
2022-10-05T18:05:15.216Z,15.03
2022-10-05T18:07:48.184Z,14.96
2022-10-05T18:10:28.647Z,14.94
2022-10-05T18:13:01.535Z,14.83
2022-10-05T18:15:28.192Z,14.86
2022-10-05T18:18:00.930Z,14.80
2022-10-05T18:20:31.927Z,14.83
2022-10-05T18:23:07.804Z,14.83
2022-10-05T18:25:43.342Z,14.72
2022-10-05T18:28:50.995Z,14.62
2022-10-05T18:31:43.815Z,14.52
2022-10-05T18:34:36.023Z,14.60
2022-10-05T18:37:25.750Z,14.56
2022-10-05T18:40:05.709Z,14.44
2022-10-05T18:42:48.636Z,14.39
2022-10-05T18:45:36.513Z,14.30
2022-10-05T18:48:29.754Z,14.27
2022-10-05T18:51:26.117Z,14.25
2022-10-05T18:54:06.196Z,14.22
2022-10-05T18:56:42.820Z,14.21
2022-10-05T18:59:24.546Z,14.15
2022-10-05T19:02:11.298Z,14.04
2022-10-05T19:04:56.889Z,14.07
2022-10-05T19:07:40.752Z,14.03
2022-10-05T19:10:31.018Z,13.92
2022-10-05T19:13:15.873Z,13.88
2022-10-05T19:15:57.910Z,13.91
2022-10-05T19:19:04.284Z,13.91
2022-10-05T19:21:57.891Z,13.90
2022-10-05T19:24:33.791Z,13.89
2022-10-05T19:27:38.818Z,13.82
2022-10-05T19:30:22.994Z,13.83
2022-10-05T19:33:13.671Z,13.79
2022-10-05T19:35:47.426Z,13.74
2022-10-05T19:38:23.520Z,13.70
2022-10-05T19:41:11.361Z,13.78
2022-10-05T19:44:13.371Z,13.70
2022-10-05T19:46:59.902Z,13.62
2022-10-05T19:49:56.551Z,13.60
2022-10-05T19:52:40.773Z,13.62
2022-10-05T19:55:26.418Z,13.73
2022-10-05T19:57:57.750Z,13.73
2022-10-05T20:00:25.862Z,13.74
2022-10-05T20:03:12.152Z,13.68
2022-10-05T20:05:40.136Z,13.68
2022-10-05T20:08:08.132Z,13.68
2022-10-05T20:10:34.949Z,13.85
2022-10-05T20:13:03.726Z,13.80
2022-10-05T20:15:53.969Z,13.80
2022-10-05T20:18:57.741Z,13.76
2022-10-05T20:21:50.878Z,13.73
2022-10-05T20:24:28.751Z,13.69
2022-10-05T20:27:06.396Z,13.65
2022-10-05T20:29:38.634Z,13.54
2022-10-05T20:32:18.100Z,13.59
2022-10-05T20:34:48.469Z,13.52
2022-10-05T20:37:17.572Z,13.48
2022-10-05T20:39:44.989Z,13.42
2022-10-05T20:42:11.735Z,13.42
2022-10-05T20:44:38.573Z,13.41
2022-10-05T20:47:09.523Z,13.37
2022-10-05T20:49:37.935Z,13.32
2022-10-05T20:52:05.989Z,13.32
2022-10-05T20:54:32.740Z,13.33
2022-10-05T20:56:59.425Z,13.37
2022-10-05T20:59:26.284Z,13.36
2022-10-05T21:01:52.964Z,13.27
2022-10-05T21:04:22.668Z,13.21
2022-10-05T21:06:50.065Z,13.16
2022-10-05T21:09:19.522Z,13.12
2022-10-05T21:11:50.242Z,13.06
2022-10-05T21:14:17.200Z,13.01
2022-10-05T21:16:45.855Z,12.98
2022-10-05T21:19:14.527Z,12.94
2022-10-05T21:21:43.226Z,12.92
2022-10-05T21:24:13.712Z,12.88
2022-10-05T21:26:41.828Z,12.85
2022-10-05T21:29:12.579Z,12.84
2022-10-05T21:31:39.968Z,12.82
2022-10-05T21:34:06.983Z,12.76
2022-10-05T21:36:33.675Z,12.75
2022-10-05T21:39:00.524Z,12.65
2022-10-05T21:41:27.511Z,12.64
2022-10-05T21:43:54.271Z,12.54
2022-10-05T21:46:25.497Z,12.52
2022-10-05T21:48:53.905Z,12.47
2022-10-05T21:51:24.097Z,12.48
2022-10-05T21:53:55.277Z,12.43
2022-10-05T21:56:25.815Z,12.52
2022-10-05T21:58:52.858Z,12.44
2022-10-05T22:01:22.668Z,12.35
2022-10-05T22:03:49.872Z,12.29
2022-10-05T22:06:16.646Z,12.39
2022-10-05T22:08:43.524Z,12.30
2022-10-05T22:11:13.646Z,12.25
2022-10-05T22:13:46.017Z,12.13
2022-10-05T22:16:13.664Z,12.19
2022-10-05T22:18:41.061Z,12.12
2022-10-05T22:22:07.578Z,12.05
2022-10-05T22:25:15.983Z,11.98
2022-10-05T22:28:13.750Z,11.93
2022-10-05T22:30:42.813Z,12.00
2022-10-05T22:33:09.857Z,12.02
2022-10-05T22:35:36.921Z,12.01
2022-10-05T22:38:04.314Z,11.98
2022-10-05T22:40:31.509Z,12.01
2022-10-05T22:42:58.240Z,12.00
2022-10-05T22:45:30.349Z,11.95
2022-10-05T22:47:59.239Z,11.84
2022-10-05T22:50:25.973Z,11.72
2022-10-05T22:52:52.855Z,11.61
2022-10-05T22:55:19.513Z,11.46
2022-10-05T22:57:46.459Z,11.42
2022-10-05T23:00:13.466Z,11.39
2022-10-05T23:02:42.103Z,11.43
2022-10-05T23:05:10.693Z,11.37
2022-10-05T23:07:42.487Z,11.40
2022-10-05T23:10:12.176Z,11.34
2022-10-05T23:12:39.118Z,11.23
2022-10-05T23:15:06.642Z,11.27
2022-10-05T23:17:35.098Z,11.24
2022-10-05T23:20:02.297Z,11.19
2022-10-05T23:22:29.084Z,11.16
2022-10-05T23:24:55.940Z,11.20
2022-10-05T23:27:22.627Z,11.19
2022-10-05T23:29:49.381Z,11.11
2022-10-05T23:32:16.172Z,11.00
2022-10-05T23:34:42.795Z,10.98
2022-10-05T23:37:09.502Z,10.90
2022-10-05T23:39:36.197Z,10.88
2022-10-05T23:42:02.996Z,10.85
2022-10-05T23:44:29.660Z,10.86
2022-10-05T23:46:56.390Z,10.77
2022-10-05T23:49:23.142Z,10.77
2022-10-05T23:51:49.731Z,10.77
2022-10-05T23:54:16.506Z,10.76
2022-10-05T23:56:43.295Z,10.70
2022-10-05T23:59:09.990Z,10.69
